createdAt,value
2023-01-03T00:05:56.036Z,70.29
2023-01-03T00:15:59.298Z,70.15
2023-01-03T00:26:11.661Z,70.35
2023-01-03T00:36:14.934Z,70.07
2023-01-03T00:46:20.902Z,70.19
2023-01-03T00:56:25.938Z,69.32
2023-01-03T01:06:32.370Z,70.56
2023-01-03T01:16:35.573Z,70.53
2023-01-03T01:26:41.080Z,70.30
2023-01-03T01:36:45.161Z,70.26
2023-01-03T01:46:50.008Z,70.00
2023-01-03T01:56:54.337Z,69.99
2023-01-03T02:06:59.338Z,70.02
2023-01-03T02:17:08.126Z,70.14
2023-01-03T02:27:25.646Z,70.27
2023-01-03T02:37:34.912Z,69.91
2023-01-03T02:47:45.650Z,69.95
2023-01-03T02:57:55.619Z,70.04
2023-01-03T03:07:58.806Z,70.04
2023-01-03T03:18:06.937Z,69.82
2023-01-03T03:28:30.016Z,69.84
2023-01-03T03:38:36.479Z,70.04
2023-01-03T03:49:01.627Z,70.06
2023-01-03T03:59:07.881Z,70.25
2023-01-03T04:09:11.705Z,71.59
2023-01-03T04:19:16.229Z,70.40
2023-01-03T04:29:19.359Z,69.71
2023-01-03T04:39:24.476Z,70.07
2023-01-03T04:49:27.796Z,69.78
2023-01-03T04:59:32.276Z,70.07
2023-01-03T05:09:35.449Z,69.96
2023-01-03T05:20:00.262Z,69.57
2023-01-03T05:30:03.531Z,69.83
2023-01-03T05:40:11.318Z,70.03
2023-01-03T05:50:14.601Z,70.08
2023-01-03T06:00:23.400Z,69.87
2023-01-03T06:10:31.810Z,69.69
2023-01-03T06:20:36.456Z,69.50
2023-01-03T06:30:39.763Z,69.88
2023-01-03T06:40:49.894Z,69.95
2023-01-03T06:51:10.519Z,69.68
2023-01-03T07:01:15.830Z,69.53
2023-01-03T07:11:19.059Z,70.37
2023-01-03T07:21:23.782Z,70.93
2023-01-03T07:31:27.367Z,70.61
2023-01-03T07:41:45.776Z,69.75
2023-01-03T07:51:48.930Z,71.11
2023-01-03T08:01:53.479Z,70.30
2023-01-03T08:12:14.017Z,70.23
2023-01-03T08:22:18.899Z,70.48
2023-01-03T08:32:22.341Z,70.39
2023-01-03T08:42:27.048Z,72.08
2023-01-03T08:52:35.262Z,70.62
2023-01-03T09:02:41.397Z,70.17
2023-01-03T09:12:44.683Z,70.16
2023-01-03T09:22:49.236Z,70.34
2023-01-03T09:32:52.595Z,71.61
2023-01-03T09:43:21.417Z,71.56
2023-01-03T09:53:50.126Z,70.02
2023-01-03T10:04:05.525Z,72.45
2023-01-03T10:14:18.343Z,69.05
2023-01-03T10:24:24.960Z,68.50
2023-01-03T10:34:28.047Z,68.56
2023-01-03T10:44:33.820Z,67.87
2023-01-03T10:54:48.172Z,69.30
2023-01-03T11:05:12.563Z,68.35
2023-01-03T11:15:18.453Z,66.64
2023-01-03T11:25:34.808Z,66.71
2023-01-03T11:35:54.671Z,68.57
2023-01-03T11:46:18.826Z,66.30
2023-01-03T11:56:28.147Z,67.26
2023-01-03T12:06:37.650Z,67.80
2023-01-03T12:16:45.878Z,65.46
2023-01-03T12:26:56.384Z,65.20
2023-01-03T12:37:08.463Z,67.62
2023-01-03T12:47:21.865Z,64.90
2023-01-03T12:57:55.308Z,65.12
2023-01-03T13:08:06.760Z,64.11
2023-01-03T13:18:33.713Z,63.47
2023-01-03T13:28:38.734Z,66.64
2023-01-03T13:38:42.127Z,64.83
2023-01-03T13:48:56.764Z,63.48
2023-01-03T13:59:10.553Z,64.17
2023-01-03T14:09:27.978Z,63.47
2023-01-03T14:19:34.006Z,63.18
2023-01-03T14:29:40.120Z,62.38
2023-01-03T14:39:53.403Z,61.56
2023-01-03T14:50:04.135Z,61.57
2023-01-03T15:00:09.431Z,62.11
2023-01-03T15:10:22.425Z,62.54
2023-01-03T15:20:32.285Z,67.64
2023-01-03T15:30:48.148Z,66.20
2023-01-03T15:40:51.984Z,64.56
2023-01-03T15:50:57.074Z,64.85
2023-01-03T16:01:01.109Z,65.32
2023-01-03T16:11:07.519Z,64.53
2023-01-03T16:21:11.063Z,64.54
2023-01-03T16:31:18.665Z,65.76
2023-01-03T16:41:22.002Z,65.14
2023-01-03T16:51:28.623Z,64.97
2023-01-03T17:01:31.848Z,65.07
2023-01-03T17:11:36.491Z,64.88
2023-01-03T17:21:39.687Z,65.34
2023-01-03T17:31:44.215Z,66.69
2023-01-03T17:42:04.829Z,66.17
2023-01-03T17:52:15.496Z,65.96
2023-01-03T18:02:21.430Z,66.14
2023-01-03T18:12:26.807Z,66.03
2023-01-03T18:22:29.968Z,66.84
2023-01-03T18:32:35.781Z,66.66
2023-01-03T18:42:59.128Z,67.13
2023-01-03T18:53:05.164Z,66.85
2023-01-03T19:03:21.167Z,67.77
2023-01-03T19:13:27.956Z,68.39
2023-01-03T19:23:31.509Z,68.24
2023-01-03T19:33:36.987Z,68.32
2023-01-03T19:43:40.142Z,68.32
2023-01-03T19:53:44.630Z,69.44
2023-01-03T20:03:49.400Z,69.80
2023-01-03T20:13:54.122Z,69.10
2023-01-03T20:23:59.681Z,68.68
2023-01-03T20:34:06.404Z,68.73
2023-01-03T20:44:11.181Z,68.32
2023-01-03T20:54:15.640Z,68.93
2023-01-03T21:04:18.833Z,68.28
2023-01-03T21:14:23.385Z,68.90
2023-01-03T21:24:26.748Z,68.60
2023-01-03T21:34:32.379Z,67.60
2023-01-03T21:44:35.775Z,66.26
2023-01-03T21:54:40.496Z,65.96
2023-01-03T22:04:43.606Z,65.22
2023-01-03T22:14:48.760Z,63.42
2023-01-03T22:24:52.008Z,61.58
2023-01-03T22:34:56.546Z,61.24
2023-01-03T22:44:59.617Z,61.18
2023-01-03T22:55:04.416Z,57.08
2023-01-03T23:05:08.219Z,56.33
2023-01-03T23:15:13.139Z,56.75
2023-01-03T23:25:16.412Z,56.89
2023-01-03T23:35:21.020Z,55.47
2023-01-03T23:45:24.082Z,52.90
2023-01-03T23:55:28.815Z,52.84
